createdAt,value
2023-04-22T00:05:23.359Z,7.25
2023-04-22T00:15:29.969Z,6.96
2023-04-22T00:25:36.555Z,7.00
2023-04-22T00:35:43.207Z,7.10
2023-04-22T00:45:50.675Z,7.03
2023-04-22T00:55:57.230Z,7.12
2023-04-22T01:06:03.728Z,6.84
2023-04-22T01:16:10.614Z,6.54
2023-04-22T01:26:17.195Z,6.30
2023-04-22T01:36:23.712Z,6.27
2023-04-22T01:46:30.768Z,6.17
2023-04-22T01:56:38.024Z,6.17
2023-04-22T02:06:44.810Z,5.94
2023-04-22T02:16:51.359Z,5.62
2023-04-22T02:26:57.844Z,5.24
2023-04-22T02:37:04.334Z,5.31
2023-04-22T02:47:10.787Z,5.18
2023-04-22T02:57:17.220Z,4.84
2023-04-22T03:07:23.720Z,4.70
2023-04-22T03:17:30.243Z,4.53
2023-04-22T03:27:36.790Z,4.21
2023-04-22T03:37:43.370Z,4.12
2023-04-22T03:47:49.885Z,4.18
2023-04-22T03:57:56.840Z,4.14
2023-04-22T04:08:03.663Z,4.26
2023-04-22T04:18:10.954Z,4.10
2023-04-22T04:28:18.960Z,4.36
2023-04-22T04:38:26.487Z,4.85
2023-04-22T04:48:37.293Z,6.06
2023-04-22T04:58:44.020Z,7.24
2023-04-22T05:08:50.535Z,8.73
2023-04-22T05:18:57.009Z,10.51
2023-04-22T05:29:03.472Z,12.02
2023-04-22T05:39:10.662Z,11.84
2023-04-22T05:49:17.253Z,12.91
2023-04-22T05:59:24.026Z,13.13
2023-04-22T06:09:30.639Z,13.90
2023-04-22T06:19:37.428Z,13.44
2023-04-22T06:29:44.108Z,14.17
2023-04-22T06:39:50.623Z,14.28
2023-04-22T06:49:57.088Z,15.33
2023-04-22T07:00:04.218Z,14.86
2023-04-22T07:10:12.144Z,17.45
2023-04-22T07:20:18.827Z,15.85
2023-04-22T07:30:25.440Z,16.50
2023-04-22T07:40:32.389Z,18.35
2023-04-22T07:50:38.803Z,20.08
2023-04-22T08:00:45.502Z,19.83
2023-04-22T08:10:52.074Z,19.84
2023-04-22T08:20:58.574Z,20.74
2023-04-22T08:31:05.600Z,21.00
2023-04-22T08:41:12.297Z,21.46
2023-04-22T08:51:19.565Z,21.96
2023-04-22T09:01:27.061Z,21.49
2023-04-22T09:11:34.560Z,21.00
2023-04-22T09:21:42.447Z,20.69
2023-04-22T09:31:52.462Z,21.29
2023-04-22T09:41:59.149Z,20.65
2023-04-22T09:52:05.959Z,21.43
2023-04-22T10:02:12.706Z,23.20
2023-04-22T10:12:26.121Z,22.31
2023-04-22T10:22:39.891Z,21.95
2023-04-22T10:32:46.486Z,20.24
2023-04-22T10:42:54.387Z,20.64
2023-04-22T10:53:04.701Z,21.94
2023-04-22T11:03:13.596Z,22.54
2023-04-22T11:13:22.553Z,21.51
2023-04-22T11:23:29.699Z,21.53
2023-04-22T11:33:36.420Z,21.87
2023-04-22T11:43:49.340Z,21.89
2023-04-22T11:53:55.867Z,20.54
2023-04-22T12:04:02.814Z,22.70
2023-04-22T12:14:09.442Z,21.89
2023-04-22T12:24:16.432Z,21.82
2023-04-22T12:34:22.945Z,23.20
2023-04-22T12:44:29.452Z,22.01
2023-04-22T12:54:35.948Z,21.82
2023-04-22T13:04:42.756Z,22.13
2023-04-22T13:14:49.364Z,24.20
2023-04-22T13:24:55.835Z,24.23
2023-04-22T13:35:03.241Z,22.89
2023-04-22T13:45:10.422Z,22.44
2023-04-22T13:55:17.410Z,21.64
2023-04-22T14:05:24.032Z,22.33
2023-04-22T14:15:30.578Z,23.82
2023-04-22T14:25:37.071Z,22.24
2023-04-22T14:35:44.747Z,21.95
2023-04-22T14:45:51.315Z,22.25
2023-04-22T14:55:57.975Z,21.74
2023-04-22T15:06:04.727Z,21.29
2023-04-22T15:16:11.357Z,21.71
2023-04-22T15:26:17.845Z,21.53
2023-04-22T15:36:24.363Z,20.91
2023-04-22T15:46:31.861Z,20.37
2023-04-22T15:56:38.456Z,20.33
2023-04-22T16:06:45.004Z,20.28
2023-04-22T16:16:51.709Z,19.67
2023-04-22T16:26:58.204Z,19.37
2023-04-22T16:37:05.192Z,19.12
2023-04-22T16:47:11.708Z,18.77
2023-04-22T16:57:18.276Z,18.48
2023-04-22T17:07:24.750Z,18.28
2023-04-22T17:17:31.809Z,17.94
2023-04-22T17:27:38.391Z,17.87
2023-04-22T17:37:45.054Z,17.52
2023-04-22T17:47:51.732Z,16.96
2023-04-22T17:57:58.262Z,16.59
2023-04-22T18:08:05.655Z,15.79
2023-04-22T18:18:12.345Z,15.61
2023-04-22T18:28:19.473Z,15.08
2023-04-22T18:38:25.948Z,15.02
2023-04-22T18:48:32.544Z,14.64
2023-04-22T18:58:39.050Z,14.60
2023-04-22T19:08:45.588Z,13.89
2023-04-22T19:18:52.659Z,13.75
2023-04-22T19:28:59.392Z,13.51
2023-04-22T19:39:07.554Z,13.55
2023-04-22T19:49:14.500Z,13.24
2023-04-22T19:59:21.217Z,13.17
2023-04-22T20:09:28.651Z,13.16
2023-04-22T20:19:35.398Z,12.64
2023-04-22T20:29:42.215Z,12.41
2023-04-22T20:39:52.945Z,12.59
2023-04-22T20:49:59.477Z,11.74
2023-04-22T21:00:08.884Z,11.38
2023-04-22T21:10:15.707Z,11.22
2023-04-22T21:20:23.212Z,11.01
2023-04-22T21:30:30.077Z,10.88
2023-04-22T21:40:37.296Z,10.48
2023-04-22T21:50:43.846Z,10.62
2023-04-22T22:00:50.679Z,10.36
2023-04-22T22:10:57.741Z,10.23
2023-04-22T22:21:04.247Z,10.02
2023-04-22T22:31:10.757Z,9.82
2023-04-22T22:41:17.219Z,9.72
2023-04-22T22:51:23.904Z,9.72
2023-04-22T23:01:30.940Z,9.40
2023-04-22T23:11:37.607Z,9.21
2023-04-22T23:21:45.555Z,8.99
2023-04-22T23:31:53.504Z,8.87
2023-04-22T23:41:59.946Z,9.26
2023-04-22T23:52:06.692Z,9.32
